createdAt,value
2023-02-26T00:01:29.548Z,94222.25
2023-02-26T00:03:59.053Z,94217.03
2023-02-26T00:06:32.281Z,94231.03
2023-02-26T00:09:00.266Z,94228.44
2023-02-26T00:11:28.266Z,94229.44
2023-02-26T00:13:56.464Z,94235.63
2023-02-26T00:16:28.745Z,94241.66
2023-02-26T00:18:57.644Z,94239.25
2023-02-26T00:21:26.854Z,94242.69
2023-02-26T00:23:56.761Z,94241.84
2023-02-26T00:26:26.968Z,94241.03
2023-02-26T00:28:56.011Z,94246.25
2023-02-26T00:31:25.385Z,94246.25
2023-02-26T00:33:54.194Z,94248.03
2023-02-26T00:36:25.935Z,94242.03
2023-02-26T00:39:08.003Z,94248.88
2023-02-26T00:41:36.973Z,94258.50
2023-02-26T00:44:05.147Z,94253.28
2023-02-26T00:46:39.849Z,94260.31
2023-02-26T00:49:17.897Z,94255.25
2023-02-26T00:51:50.009Z,94252.63
2023-02-26T00:54:22.166Z,94247.25
2023-02-26T00:56:50.854Z,94262.75
2023-02-26T00:59:18.599Z,94255.72
2023-02-26T01:01:46.732Z,94252.13
2023-02-26T01:04:16.991Z,94261.59
2023-02-26T01:06:46.860Z,94256.53
2023-02-26T01:09:24.239Z,94258.34
2023-02-26T01:11:52.879Z,94253.28
2023-02-26T01:14:21.004Z,94254.41
2023-02-26T01:16:54.450Z,94263.25
2023-02-26T01:19:31.055Z,94260.81
2023-02-26T01:22:06.733Z,94256.56
2023-02-26T01:24:37.591Z,94252.19
2023-02-26T01:27:05.985Z,94261.47
2023-02-26T01:29:34.446Z,94258.03
2023-02-26T01:32:09.672Z,94272.88
2023-02-26T01:34:43.215Z,94272.06
2023-02-26T01:37:23.870Z,94274.84
2023-02-26T01:40:05.389Z,94271.41
2023-02-26T01:42:37.757Z,94263.78
2023-02-26T01:45:13.342Z,94273.38
2023-02-26T01:47:47.077Z,94269.97
2023-02-26T01:50:18.512Z,94279.63
2023-02-26T01:53:15.881Z,94277.97
2023-02-26T01:55:46.637Z,94274.41
2023-02-26T01:58:14.518Z,94279.63
2023-02-26T02:00:42.130Z,94283.84
2023-02-26T02:03:11.254Z,94284.66
2023-02-26T02:05:44.764Z,94286.63
2023-02-26T02:08:13.861Z,94285.81
2023-02-26T02:10:45.561Z,94285.00
2023-02-26T02:13:26.227Z,94289.22
2023-02-26T02:16:07.061Z,94289.06
2023-02-26T02:18:41.743Z,94292.81
2023-02-26T02:21:29.066Z,94298.84
2023-02-26T02:24:03.016Z,94294.63
2023-02-26T02:27:04.348Z,94298.22
2023-02-26T02:30:15.916Z,94300.84
2023-02-26T02:32:51.075Z,94297.41
2023-02-26T02:35:23.509Z,94294.78
2023-02-26T02:37:59.611Z,94301.78
2023-02-26T02:40:32.237Z,94298.41
2023-02-26T02:43:04.996Z,94300.19
2023-02-26T02:45:39.387Z,94298.53
2023-02-26T02:48:13.763Z,94299.38
2023-02-26T02:50:46.166Z,94299.56
2023-02-26T02:53:18.962Z,94307.38
2023-02-26T02:55:51.229Z,94309.16
2023-02-26T02:58:23.427Z,94309.16
2023-02-26T03:00:55.332Z,94319.44
2023-02-26T03:03:28.913Z,94316.19
2023-02-26T03:05:56.614Z,94319.59
2023-02-26T03:08:28.695Z,94316.03
2023-02-26T03:10:56.559Z,94320.59
2023-02-26T03:13:26.307Z,94318.97
2023-02-26T03:16:08.579Z,94320.59
2023-02-26T03:19:00.878Z,94321.56
2023-02-26T03:21:35.071Z,94325.00
2023-02-26T03:24:09.619Z,94336.41
2023-02-26T03:26:44.514Z,94338.22
2023-02-26T03:29:20.142Z,94338.38
2023-02-26T03:31:56.191Z,94352.25
2023-02-26T03:34:31.433Z,94343.59
2023-02-26T03:37:03.654Z,94353.72
2023-02-26T03:39:36.612Z,94358.94
2023-02-26T03:42:09.164Z,94351.94
2023-02-26T03:44:40.655Z,94361.38
2023-02-26T03:47:13.780Z,94361.38
2023-02-26T03:49:46.936Z,94357.78
2023-02-26T03:52:15.584Z,94365.78
2023-02-26T03:54:47.739Z,94365.78
2023-02-26T03:57:15.380Z,94367.59
2023-02-26T03:59:43.388Z,94364.97
2023-02-26T04:02:14.787Z,94368.38
2023-02-26T04:04:53.854Z,94379.47
2023-02-26T04:07:22.267Z,94368.38
2023-02-26T04:09:51.965Z,94377.84
2023-02-26T04:12:23.096Z,94378.03
2023-02-26T04:14:50.892Z,94378.03
2023-02-26T04:17:19.200Z,94379.81
2023-02-26T04:19:48.219Z,94374.75
2023-02-26T04:22:15.972Z,94376.56
2023-02-26T04:24:43.626Z,94380.97
2023-02-26T04:27:11.271Z,94387.97
2023-02-26T04:29:38.817Z,94378.53
2023-02-26T04:32:06.577Z,94388.81
2023-02-26T04:34:34.219Z,94383.59
2023-02-26T04:37:03.171Z,94390.59
2023-02-26T04:39:30.820Z,94389.78
2023-02-26T04:41:58.758Z,94394.03
2023-02-26T04:44:26.439Z,94397.59
2023-02-26T04:46:54.055Z,94404.63
2023-02-26T04:49:21.627Z,94410.66
2023-02-26T04:51:49.297Z,94409.03
2023-02-26T04:54:18.312Z,94404.78
2023-02-26T04:56:45.934Z,94411.78
2023-02-26T04:59:13.621Z,94412.47
2023-02-26T05:01:41.229Z,94411.66
2023-02-26T05:04:08.908Z,94409.03
2023-02-26T05:06:36.567Z,94413.13
2023-02-26T05:09:04.654Z,94411.47
2023-02-26T05:11:33.660Z,94413.13
2023-02-26T05:14:01.297Z,94425.81
2023-02-26T05:16:29.324Z,94417.84
2023-02-26T05:18:57.238Z,94426.47
2023-02-26T05:21:26.311Z,94429.88
2023-02-26T05:23:54.337Z,94427.28
2023-02-26T05:26:21.986Z,94431.53
2023-02-26T05:28:51.013Z,94439.19
2023-02-26T05:31:18.655Z,94434.78
2023-02-26T05:33:46.330Z,94440.00
2023-02-26T05:36:14.536Z,94447.66
2023-02-26T05:38:42.179Z,94445.06
2023-02-26T05:41:09.766Z,94449.31
2023-02-26T05:43:39.499Z,94451.91
2023-02-26T05:46:08.740Z,94445.88
2023-02-26T05:48:36.323Z,94452.06
2023-02-26T05:51:04.032Z,94451.28
2023-02-26T05:53:31.741Z,94437.22
2023-02-26T05:55:59.329Z,94450.44
2023-02-26T05:58:26.950Z,94444.41
2023-02-26T06:00:54.936Z,94444.59
2023-02-26T06:03:23.860Z,94447.19
2023-02-26T06:05:51.680Z,94439.38
2023-02-26T06:08:19.263Z,94444.41
2023-02-26T06:10:46.855Z,94453.22
2023-02-26T06:13:14.497Z,94464.47
2023-02-26T06:15:42.101Z,94471.47
2023-02-26T06:18:09.800Z,94481.94
2023-02-26T06:20:38.836Z,94493.19
2023-02-26T06:23:06.442Z,94510.63
2023-02-26T06:25:34.049Z,94512.47
2023-02-26T06:28:01.726Z,94533.34
2023-02-26T06:30:29.654Z,94529.09
2023-02-26T06:32:57.288Z,94536.09
2023-02-26T06:35:25.047Z,94539.72
2023-02-26T06:37:53.971Z,94536.28
2023-02-26T06:40:21.582Z,94536.28
2023-02-26T06:42:49.223Z,94546.53
2023-02-26T06:45:17.010Z,94534.50
2023-02-26T06:47:44.604Z,94545.75
2023-02-26T06:50:13.406Z,94543.94
2023-02-26T06:52:40.992Z,94549.16
2023-02-26T06:55:11.420Z,94548.19
2023-02-26T06:57:39.151Z,94549.00
2023-02-26T07:00:08.748Z,94551.63
2023-02-26T07:02:36.801Z,94552.59
2023-02-26T07:05:04.583Z,94562.06
2023-02-26T07:07:32.180Z,94568.06
2023-02-26T07:09:59.793Z,94578.53
2023-02-26T07:12:28.718Z,94578.53
2023-02-26T07:14:56.320Z,94581.13
2023-02-26T07:17:24.177Z,94585.56
2023-02-26T07:19:53.527Z,94587.34
2023-02-26T07:22:22.353Z,94587.53
2023-02-26T07:24:51.170Z,94597.13
2023-02-26T07:27:18.801Z,94602.34
2023-02-26T07:29:47.759Z,94601.53
2023-02-26T07:32:15.451Z,94598.94
2023-02-26T07:34:43.390Z,94599.75
2023-02-26T07:37:10.981Z,94602.53
2023-02-26T07:39:38.650Z,94602.53
2023-02-26T07:42:06.297Z,94604.31
2023-02-26T07:44:33.946Z,94603.50
2023-02-26T07:47:03.199Z,94603.31
2023-02-26T07:49:32.560Z,94607.75
2023-02-26T07:52:00.205Z,94608.53
2023-02-26T07:54:27.860Z,94606.75
2023-02-26T07:56:55.651Z,94604.97
2023-02-26T07:59:23.209Z,94604.16
2023-02-26T08:01:50.854Z,94616.25
2023-02-26T08:04:19.901Z,94613.47
2023-02-26T08:06:47.493Z,94624.84
2023-02-26T08:09:15.320Z,94622.25
2023-02-26T08:11:43.387Z,94625.84
2023-02-26T08:14:12.486Z,94630.09
2023-02-26T08:16:40.486Z,94628.28
2023-02-26T08:19:08.390Z,94630.91
2023-02-26T08:21:37.472Z,94625.69
2023-02-26T08:24:05.566Z,94631.91
2023-02-26T08:26:36.645Z,94638.75
2023-02-26T08:29:05.624Z,94634.34
2023-02-26T08:31:34.528Z,94649.84
2023-02-26T08:34:03.141Z,94649.00
2023-02-26T08:36:31.041Z,94653.28
2023-02-26T08:39:00.284Z,94661.91
2023-02-26T08:41:30.279Z,94669.75
2023-02-26T08:43:57.920Z,94661.91
2023-02-26T08:46:26.067Z,94663.53
2023-02-26T08:48:54.019Z,94663.53
2023-02-26T08:51:22.236Z,94664.38
2023-02-26T08:53:50.646Z,94668.75
2023-02-26T08:56:20.072Z,94665.34
2023-02-26T08:58:47.723Z,94673.19
2023-02-26T09:01:15.456Z,94682.63
2023-02-26T09:03:43.094Z,94680.84
2023-02-26T09:06:10.720Z,94691.28
2023-02-26T09:08:38.390Z,94697.34
2023-02-26T09:11:06.535Z,94702.38
2023-02-26T09:13:35.466Z,94701.56
2023-02-26T09:16:03.082Z,94701.56
2023-02-26T09:18:30.692Z,94697.34
2023-02-26T09:20:58.312Z,94706.97
2023-02-26T09:23:25.993Z,94703.53
2023-02-26T09:25:55.382Z,94713.16
2023-02-26T09:28:23.662Z,94713.16
2023-02-26T09:30:54.296Z,94719.19
2023-02-26T09:33:22.740Z,94721.81
2023-02-26T09:35:50.905Z,94723.75
2023-02-26T09:38:19.809Z,94730.63
2023-02-26T09:40:51.981Z,94728.81
2023-02-26T09:43:43.090Z,94734.03
2023-02-26T09:46:22.705Z,94725.41
2023-02-26T09:48:53.321Z,94730.63
2023-02-26T09:51:23.636Z,94735.84
2023-02-26T09:53:53.492Z,94736.81
2023-02-26T09:56:25.567Z,94739.41
2023-02-26T09:58:55.541Z,94740.25
2023-02-26T10:01:30.314Z,94746.28
2023-02-26T10:04:11.979Z,94739.41
2023-02-26T10:06:48.815Z,94740.25
2023-02-26T10:09:34.401Z,94741.88
2023-02-26T10:12:08.483Z,94747.09
2023-02-26T10:14:39.838Z,94749.69
2023-02-26T10:17:15.901Z,94739.25
2023-02-26T10:19:46.654Z,94740.91
2023-02-26T10:22:25.514Z,94740.06
2023-02-26T10:24:59.424Z,94741.38
2023-02-26T10:27:41.200Z,94739.44
2023-02-26T10:30:17.377Z,94741.91
2023-02-26T10:32:56.568Z,94739.13
2023-02-26T10:35:27.869Z,94739.13
2023-02-26T10:37:59.072Z,94737.47
2023-02-26T10:40:33.979Z,94740.09
2023-02-26T10:43:07.439Z,94729.63
2023-02-26T10:45:45.307Z,94728.84
2023-02-26T10:48:46.299Z,94727.38
2023-02-26T10:51:17.718Z,94720.34
2023-02-26T10:53:50.282Z,94721.31
2023-02-26T10:56:22.367Z,94720.50
2023-02-26T10:58:50.360Z,94716.28
2023-02-26T11:01:21.137Z,94713.81
2023-02-26T11:03:56.574Z,94707.78
2023-02-26T11:06:28.715Z,94705.31
2023-02-26T11:08:58.448Z,94697.47
2023-02-26T11:11:47.204Z,94700.91
2023-02-26T11:14:16.474Z,94700.91
2023-02-26T11:16:49.137Z,94705.31
2023-02-26T11:19:23.730Z,94708.91
2023-02-26T11:21:52.414Z,94712.34
2023-02-26T11:24:27.459Z,94725.41
2023-02-26T11:26:56.355Z,94740.91
2023-02-26T11:29:26.666Z,94756.41
2023-02-26T11:31:58.106Z,94744.81
2023-02-26T11:34:27.584Z,94745.66
2023-02-26T11:37:00.000Z,94755.25
2023-02-26T11:39:30.924Z,94751.69
2023-02-26T11:42:01.031Z,94750.88
2023-02-26T11:44:36.665Z,94752.66
2023-02-26T11:47:08.032Z,94748.41
2023-02-26T11:49:41.998Z,94750.03
2023-02-26T11:52:20.643Z,94757.06
2023-02-26T11:54:51.309Z,94750.88
2023-02-26T11:57:20.832Z,94756.09
2023-02-26T11:59:50.675Z,94757.72
2023-02-26T12:02:21.154Z,94755.09
2023-02-26T12:04:53.397Z,94748.25
2023-02-26T12:07:22.818Z,94762.28
2023-02-26T12:09:50.886Z,94758.06
2023-02-26T12:12:32.145Z,94752.81
2023-02-26T12:15:13.908Z,94764.22
2023-02-26T12:17:59.954Z,94763.41
2023-02-26T12:20:36.434Z,94766.84
2023-02-26T12:23:22.242Z,94771.09
2023-02-26T12:26:25.853Z,94762.44
2023-02-26T12:29:07.178Z,94771.91
2023-02-26T12:32:06.320Z,94766.66
2023-02-26T12:34:57.931Z,94766.66
2023-02-26T12:37:40.763Z,94770.09
2023-02-26T12:40:23.533Z,94775.34
2023-02-26T12:43:00.779Z,94762.28
2023-02-26T12:45:43.190Z,94762.28
2023-02-26T12:48:43.308Z,94748.41
2023-02-26T12:51:24.018Z,94749.38
2023-02-26T12:54:06.398Z,94747.59
2023-02-26T12:56:49.778Z,94737.94
2023-02-26T12:59:33.423Z,94736.34
2023-02-26T13:02:24.604Z,94731.94
2023-02-26T13:05:18.312Z,94729.47
2023-02-26T13:07:53.006Z,94739.13
2023-02-26T13:10:29.229Z,94733.91
2023-02-26T13:13:08.582Z,94735.69
2023-02-26T13:16:05.891Z,94742.53
2023-02-26T13:18:41.954Z,94746.94
2023-02-26T13:21:13.693Z,94745.13
2023-02-26T13:23:52.690Z,94758.19
2023-02-26T13:26:23.032Z,94759.19
2023-02-26T13:28:56.695Z,94783.34
2023-02-26T13:31:30.260Z,94767.84
2023-02-26T13:34:02.372Z,94767.84
2023-02-26T13:36:30.598Z,94759.00
2023-02-26T13:39:11.318Z,94760.00
2023-02-26T13:41:50.383Z,94763.41
2023-02-26T13:44:28.746Z,94759.19
2023-02-26T13:47:17.169Z,94757.22
2023-02-26T13:49:57.691Z,94755.44
2023-02-26T13:52:27.457Z,94750.22
2023-02-26T13:54:56.401Z,94749.38
2023-02-26T13:57:35.284Z,94760.78
2023-02-26T14:00:12.889Z,94768.63
2023-02-26T14:02:53.427Z,94772.06
2023-02-26T14:06:01.016Z,94767.84
2023-02-26T14:08:51.094Z,94762.44
2023-02-26T14:11:46.753Z,94764.22
2023-02-26T14:14:31.660Z,94755.56
2023-02-26T14:17:35.988Z,94769.44
2023-02-26T14:20:31.393Z,94772.88
2023-02-26T14:23:14.250Z,94762.44
2023-02-26T14:25:47.048Z,94768.50
2023-02-26T14:28:35.012Z,94770.28
2023-02-26T14:31:27.438Z,94770.28
2023-02-26T14:34:13.618Z,94771.09
2023-02-26T14:36:45.762Z,94776.47
2023-02-26T14:39:33.395Z,94778.09
2023-02-26T14:42:05.772Z,94783.34
2023-02-26T14:44:39.658Z,94789.50
2023-02-26T14:47:09.523Z,94792.94
2023-02-26T14:49:39.326Z,94783.34
2023-02-26T14:52:32.517Z,94794.59
2023-02-26T14:55:12.673Z,94815.31
2023-02-26T14:57:49.189Z,94827.56
2023-02-26T15:00:31.719Z,94821.38
2023-02-26T15:03:27.193Z,94817.94
2023-02-26T15:06:18.150Z,94818.75
2023-02-26T15:08:58.808Z,94819.59
2023-02-26T15:12:02.837Z,94816.97
2023-02-26T15:14:51.050Z,94821.38
2023-02-26T15:17:38.050Z,94817.94
2023-02-26T15:20:18.533Z,94820.53
2023-02-26T15:22:58.968Z,94816.97
2023-02-26T15:25:31.548Z,94819.59
2023-02-26T15:27:59.424Z,94824.94
2023-02-26T15:30:28.064Z,94830.03
2023-02-26T15:32:59.864Z,94836.22
2023-02-26T15:35:31.920Z,94832.78
2023-02-26T15:38:02.130Z,94845.84
2023-02-26T15:40:33.460Z,94844.03
2023-02-26T15:43:01.994Z,94851.88
2023-02-26T15:45:36.086Z,94845.00
2023-02-26T15:48:06.178Z,94850.22
2023-02-26T15:50:42.545Z,94844.22
2023-02-26T15:53:18.256Z,94844.22
2023-02-26T15:55:50.606Z,94853.84
2023-02-26T15:58:23.099Z,94846.81
2023-02-26T16:00:54.888Z,94846.81
2023-02-26T16:03:27.628Z,94859.88
2023-02-26T16:05:58.551Z,94869.50
2023-02-26T16:08:27.137Z,94859.06
2023-02-26T16:10:57.291Z,94860.84
2023-02-26T16:13:30.247Z,94869.50
2023-02-26T16:16:02.267Z,94873.06
2023-02-26T16:18:33.657Z,94875.69
2023-02-26T16:21:05.212Z,94880.78
2023-02-26T16:23:41.856Z,94879.94
2023-02-26T16:26:16.900Z,94887.78
2023-02-26T16:28:47.083Z,94883.22
2023-02-26T16:31:19.655Z,94898.06
2023-02-26T16:33:55.551Z,94892.69
2023-02-26T16:36:27.359Z,94895.31
2023-02-26T16:39:01.910Z,94903.16
2023-02-26T16:41:33.312Z,94916.19
2023-02-26T16:44:04.261Z,94930.88
2023-02-26T16:46:43.113Z,94923.88
2023-02-26T16:49:19.638Z,94935.13
2023-02-26T16:51:49.539Z,94928.09
2023-02-26T16:54:21.144Z,94929.09
2023-02-26T16:56:52.113Z,94936.94
2023-02-26T16:59:23.335Z,94940.38
2023-02-26T17:01:55.024Z,94940.50
2023-02-26T17:04:26.686Z,94944.91
2023-02-26T17:06:56.395Z,94955.38
2023-02-26T17:09:35.595Z,94950.16
2023-02-26T17:12:07.563Z,94953.56
2023-02-26T17:14:40.438Z,94956.25
2023-02-26T17:17:08.051Z,94967.34
2023-02-26T17:19:35.690Z,94965.28
2023-02-26T17:22:06.060Z,94968.34
2023-02-26T17:24:35.900Z,94966.88
2023-02-26T17:27:05.793Z,94975.97
2023-02-26T17:29:37.231Z,94983.44
2023-02-26T17:32:05.820Z,94989.16
2023-02-26T17:34:33.671Z,94989.59
2023-02-26T17:37:05.498Z,95002.94
2023-02-26T17:39:34.519Z,95003.56
2023-02-26T17:42:02.106Z,94999.41
2023-02-26T17:44:30.372Z,95013.00
2023-02-26T17:46:57.974Z,95013.16
2023-02-26T17:49:25.595Z,95016.50
2023-02-26T17:51:53.982Z,95026.28
2023-02-26T17:54:21.576Z,95026.88
2023-02-26T17:56:50.617Z,95035.66
2023-02-26T17:59:18.230Z,95036.78
2023-02-26T18:01:45.841Z,95048.34
2023-02-26T18:04:13.809Z,95054.44
2023-02-26T18:06:41.536Z,95049.00
2023-02-26T18:09:12.406Z,95055.81
2023-02-26T18:11:40.266Z,95046.53
2023-02-26T18:14:09.957Z,95047.88
2023-02-26T18:16:40.258Z,95051.44
2023-02-26T18:19:09.408Z,95049.81
2023-02-26T18:21:37.030Z,95051.06
2023-02-26T18:24:05.085Z,95058.19
2023-02-26T18:26:34.315Z,95067.97
2023-02-26T18:29:02.102Z,95056.03
2023-02-26T18:31:34.657Z,95066.88
2023-02-26T18:34:03.463Z,95069.22
2023-02-26T18:36:37.432Z,95065.00
2023-02-26T18:39:08.677Z,95067.59
2023-02-26T18:41:36.308Z,95068.69
2023-02-26T18:44:04.293Z,95066.88
2023-02-26T18:46:34.902Z,95068.97
2023-02-26T18:49:02.606Z,95075.69
2023-02-26T18:51:31.095Z,95069.13
2023-02-26T18:53:58.716Z,95069.41
2023-02-26T18:56:26.415Z,95063.97
2023-02-26T18:58:54.019Z,95075.38
2023-02-26T19:01:21.808Z,95073.47
2023-02-26T19:03:50.845Z,95072.53
2023-02-26T19:06:18.573Z,95067.53
2023-02-26T19:08:46.310Z,95063.53
2023-02-26T19:11:14.020Z,95061.84
2023-02-26T19:13:41.606Z,95068.94
2023-02-26T19:16:09.294Z,95057.75
2023-02-26T19:18:36.970Z,95060.59
2023-02-26T19:21:07.087Z,95059.22
2023-02-26T19:23:34.766Z,95069.19
2023-02-26T19:26:02.383Z,95074.94
2023-02-26T19:28:29.992Z,95079.03
2023-02-26T19:30:57.793Z,95076.16
2023-02-26T19:33:25.669Z,95076.00
2023-02-26T19:35:53.921Z,95068.84
2023-02-26T19:38:23.499Z,95078.81
2023-02-26T19:40:52.082Z,95076.06
2023-02-26T19:43:19.689Z,95070.56
2023-02-26T19:45:47.273Z,95062.56
2023-02-26T19:48:14.836Z,95068.47
2023-02-26T19:50:42.555Z,95069.13
2023-02-26T19:53:10.220Z,95069.03
2023-02-26T19:55:39.195Z,95074.91
2023-02-26T19:58:06.798Z,95084.38
2023-02-26T20:00:34.434Z,95081.75
2023-02-26T20:03:02.089Z,95091.25
2023-02-26T20:05:29.863Z,95101.53
2023-02-26T20:07:57.540Z,95113.75
2023-02-26T20:10:26.403Z,95108.53
2023-02-26T20:12:56.020Z,95115.41
2023-02-26T20:15:23.686Z,95118.00
2023-02-26T20:17:51.290Z,95123.22
2023-02-26T20:20:19.219Z,95126.66
2023-02-26T20:22:46.845Z,95125.84
2023-02-26T20:25:14.840Z,95128.44
2023-02-26T20:27:43.630Z,95140.66
2023-02-26T20:30:14.414Z,95138.88
2023-02-26T20:32:42.248Z,95139.03
2023-02-26T20:35:10.581Z,95144.09
2023-02-26T20:37:38.220Z,95146.56
2023-02-26T20:40:07.124Z,95140.66
2023-02-26T20:42:35.144Z,95142.31
2023-02-26T20:45:02.739Z,95147.53
2023-02-26T20:47:31.836Z,95152.75
2023-02-26T20:49:59.526Z,95143.94
2023-02-26T20:52:27.266Z,95148.22
2023-02-26T20:54:54.887Z,95138.72
2023-02-26T20:57:22.531Z,95144.63
2023-02-26T20:59:50.119Z,95156.88
2023-02-26T21:02:20.617Z,95155.88
2023-02-26T21:04:49.734Z,95146.28
2023-02-26T21:07:21.880Z,95155.06
2023-02-26T21:09:50.241Z,95153.94
2023-02-26T21:12:17.948Z,95143.66
2023-02-26T21:14:45.590Z,95152.31
2023-02-26T21:17:13.427Z,95153.13
2023-02-26T21:19:41.127Z,95153.94
2023-02-26T21:22:10.100Z,95152.16
2023-02-26T21:24:37.731Z,95150.38
2023-02-26T21:27:05.536Z,95162.44
2023-02-26T21:29:33.159Z,95160.66
2023-02-26T21:32:03.547Z,95160.50
2023-02-26T21:34:34.311Z,95169.16
2023-02-26T21:37:02.182Z,95159.56
2023-02-26T21:39:32.267Z,95170.81
2023-02-26T21:42:00.458Z,95171.78
2023-02-26T21:44:28.690Z,95166.56
2023-02-26T21:46:57.356Z,95181.25
2023-02-26T21:49:25.237Z,95177.00
2023-02-26T21:51:53.508Z,95177.81
2023-02-26T21:54:21.164Z,95180.44
2023-02-26T21:56:50.106Z,95179.59
2023-02-26T21:59:17.708Z,95187.31
2023-02-26T22:01:45.344Z,95178.66
2023-02-26T22:04:13.253Z,95174.38
2023-02-26T22:06:41.290Z,95183.03
2023-02-26T22:09:08.937Z,95186.47
2023-02-26T22:11:36.649Z,95187.44
2023-02-26T22:14:05.749Z,95188.25
2023-02-26T22:16:33.475Z,95187.44
2023-02-26T22:19:01.132Z,95192.66
2023-02-26T22:21:28.957Z,95199.66
2023-02-26T22:23:56.698Z,95192.81
2023-02-26T22:26:24.327Z,95184.97
2023-02-26T22:28:51.929Z,95196.25
2023-02-26T22:31:20.900Z,95192.13
2023-02-26T22:33:48.596Z,95192.97
2023-02-26T22:36:16.222Z,95200.81
2023-02-26T22:38:44.100Z,95193.91
2023-02-26T22:41:11.699Z,95186.91
2023-02-26T22:43:39.266Z,95193.75
2023-02-26T22:46:07.617Z,95194.59
2023-02-26T22:48:37.050Z,95191.97
2023-02-26T22:51:04.882Z,95189.38
2023-02-26T22:53:32.539Z,95190.19
2023-02-26T22:56:00.546Z,95193.63
2023-02-26T22:58:28.678Z,95196.09
2023-02-26T23:01:00.522Z,95195.13
2023-02-26T23:03:28.227Z,95195.25
2023-02-26T23:05:57.299Z,95196.09
2023-02-26T23:08:25.744Z,95192.53
2023-02-26T23:10:55.267Z,95205.59
2023-02-26T23:13:23.047Z,95199.53
2023-02-26T23:15:50.722Z,95202.13
2023-02-26T23:18:18.619Z,95203.94
2023-02-26T23:20:47.234Z,95202.97
2023-02-26T23:23:16.385Z,95219.44
2023-02-26T23:25:44.125Z,95213.41
2023-02-26T23:28:12.364Z,95223.03
2023-02-26T23:30:40.428Z,95225.47
2023-02-26T23:33:08.269Z,95215.03
2023-02-26T23:35:36.162Z,95225.47
2023-02-26T23:38:04.195Z,95211.75
2023-02-26T23:40:34.125Z,95216.81
2023-02-26T23:43:01.985Z,95216.16
2023-02-26T23:45:29.598Z,95215.19
2023-02-26T23:47:57.230Z,95211.75
2023-02-26T23:50:24.979Z,95217.94
2023-02-26T23:52:52.573Z,95221.38
2023-02-26T23:55:20.250Z,95217.94
2023-02-26T23:57:49.218Z,95222.19
